Time;durP1;ratioP1;P1;durP2;ratioP2;P2;SDS_P1;SDS_P2;PMS_P1;PMS_P2;Temp;Humidity;BMP_temperature;BMP_pressure;BME280_temperature;BME280_humidity;BME280_pressure;Samples;Min_cycle;Max_cycle;Signal;HPM_P1;HPM_P2
2024/01/10 00:02:30;;;;;;;19.15;7.50;;;;;;;-5.89;83.75;102508.25;5204148;28;20021;-73
2024/01/10 00:05:00;;;;;;;18.45;7.38;;;;;;;-5.72;84.12;102515.19;5211752;28;20688;-72
2024/01/10 00:07:30;;;;;;;18.73;7.40;;;;;;;-5.78;82.80;102509.75;5211616;28;20502;-73
2024/01/10 00:10:01;;;;;;;21.52;7.82;;;;;;;-5.75;84.09;102509.06;5206527;28;20079;-73
2024/01/10 00:12:35;;;;;;;25.88;8.52;;;;;;;-5.85;84.44;102505.13;5206207;28;20036;-73
2024/01/10 00:15:06;;;;;;;20.27;7.80;;;;;;;-5.71;83.33;102498.28;5202274;28;20033;-73
2024/01/10 00:17:36;;;;;;;23.80;7.70;;;;;;;-5.79;83.45;102509.69;5208589;28;20029;-73
2024/01/10 00:20:07;;;;;;;20.65;7.72;;;;;;;-5.80;84.23;102507.91;5208082;28;20025;-73
2024/01/10 00:22:38;;;;;;;19.05;7.53;;;;;;;-5.92;84.27;102502.13;5209328;28;20048;-72
2024/01/10 00:25:08;;;;;;;20.70;7.82;;;;;;;-5.90;84.17;102496.31;5208870;28;20060;-72
2024/01/10 00:27:38;;;;;;;20.48;8.07;;;;;;;-6.00;84.10;102499.09;5210230;28;20925;-73
2024/01/10 00:30:09;;;;;;;22.13;7.82;;;;;;;-5.92;83.73;102497.03;5207535;28;20474;-73
2024/01/10 00:32:39;;;;;;;28.13;8.88;;;;;;;-5.94;83.52;102494.38;5206820;28;20032;-73
2024/01/10 00:35:11;;;;;;;22.80;7.97;;;;;;;-5.99;84.95;102493.22;5209104;28;20123;-72
2024/01/10 00:37:41;;;;;;;20.85;7.93;;;;;;;-5.91;84.85;102489.47;5211113;28;20076;-73
2024/01/10 00:40:11;;;;;;;22.08;8.00;;;;;;;-5.86;84.18;102487.22;5207019;28;20060;-73
2024/01/10 00:42:42;;;;;;;21.85;8.25;;;;;;;-5.72;84.75;102487.19;5210737;28;20031;-72
2024/01/10 00:45:12;;;;;;;34.78;9.15;;;;;;;-5.78;83.64;102480.94;5208709;28;20427;-73
2024/01/10 00:47:43;;;;;;;22.92;8.15;;;;;;;-5.71;83.67;102481.31;5207522;28;20051;-73
2024/01/10 00:50:13;;;;;;;23.73;8.35;;;;;;;-5.70;84.19;102485.66;5205779;28;20029;-73
2024/01/10 00:52:44;;;;;;;20.92;8.48;;;;;;;-5.85;83.46;102482.22;5206004;28;20447;-73
2024/01/10 00:55:14;;;;;;;23.80;9.00;;;;;;;-5.96;84.33;102482.34;5211880;28;20036;-73
2024/01/10 00:57:45;;;;;;;27.50;8.68;;;;;;;-6.02;84.70;102471.81;5210691;28;20029;-73
2024/01/10 01:00:15;;;;;;;22.17;8.38;;;;;;;-6.09;84.69;102472.22;5211059;28;20021;-73
2024/01/10 01:02:46;;;;;;;25.63;8.32;;;;;;;-6.00;84.89;102472.78;5213362;28;20051;-73
2024/01/10 01:05:16;;;;;;;26.17;9.30;;;;;;;-6.07;84.99;102479.16;5210916;28;20450;-73
2024/01/10 01:07:46;;;;;;;26.73;9.70;;;;;;;-6.09;85.43;102475.63;5205037;28;20401;-72
2024/01/10 01:10:17;;;;;;;24.98;9.32;;;;;;;-6.09;85.11;102479.88;5208906;28;20508;-73
2024/01/10 01:12:47;;;;;;;23.48;8.88;;;;;;;-6.09;85.04;102479.88;5209319;28;20025;-73
2024/01/10 01:15:18;;;;;;;22.20;8.35;;;;;;;-6.04;85.05;102478.47;5203154;28;20052;-73
2024/01/10 01:17:48;;;;;;;25.63;8.65;;;;;;;-5.90;83.93;102486.13;5211032;28;20070;-73
2024/01/10 01:20:18;;;;;;;28.38;9.55;;;;;;;-5.90;83.78;102491.22;5204344;28;20039;-73
2024/01/10 01:22:48;;;;;;;23.70;8.82;;;;;;;-6.05;83.91;102490.28;5205641;28;20040;-73
2024/01/10 01:25:19;;;;;;;27.88;9.15;;;;;;;-5.95;84.17;102492.63;5204192;28;20481;-73
2024/01/10 01:27:49;;;;;;;25.58;8.45;;;;;;;-5.90;84.50;102486.13;5197054;28;20041;-73
2024/01/10 01:30:21;;;;;;;24.67;8.68;;;;;;;-6.01;83.30;102477.00;5198670;28;20362;-73
2024/01/10 01:32:52;;;;;;;22.95;8.50;;;;;;;-6.00;84.92;102475.31;5202854;28;20079;-73
2024/01/10 01:35:23;;;;;;;26.17;9.55;;;;;;;-6.09;84.39;102483.25;5202811;28;20021;-73
2024/01/10 01:37:53;;;;;;;23.27;8.50;;;;;;;-6.17;85.27;102478.50;5207621;28;20545;-73
2024/01/10 01:40:24;;;;;;;24.73;9.68;;;;;;;-6.17;85.40;102478.50;5204481;28;20037;-73
2024/01/10 01:42:54;;;;;;;24.10;8.65;;;;;;;-6.37;85.03;102484.03;5204515;28;20045;-73
2024/01/10 01:45:24;;;;;;;26.80;9.40;;;;;;;-6.33;86.54;102481.78;5203397;28;20124;-73
2024/01/10 01:47:55;;;;;;;19.73;8.43;;;;;;;-6.48;87.13;102485.91;5201374;28;20033;-73
2024/01/10 01:50:25;;;;;;;26.00;9.75;;;;;;;-6.33;88.05;102484.31;5203686;28;20033;-72
2024/01/10 01:52:55;;;;;;;27.00;9.77;;;;;;;-6.30;86.66;102481.97;5205656;28;20033;-73
2024/01/10 01:55:25;;;;;;;26.70;10.07;;;;;;;-6.32;86.72;102477.56;5204531;28;20029;-73
2024/01/10 01:57:56;;;;;;;26.02;9.65;;;;;;;-6.47;86.70;102481.69;5203306;28;20032;-73
2024/01/10 02:00:26;;;;;;;25.42;9.02;;;;;;;-6.50;87.20;102481.50;5202771;28;20532;-72
2024/01/10 02:02:58;;;;;;;27.27;10.25;;;;;;;-6.58;87.93;102491.19;5206625;28;20066;-73
2024/01/10 02:05:28;;;;;;;28.83;10.15;;;;;;;-6.40;87.38;102481.31;5203248;28;20132;-73
2024/01/10 02:07:59;;;;;;;23.92;9.05;;;;;;;-6.36;87.57;102481.59;5206349;28;20124;-73
2024/01/10 02:10:29;;;;;;;28.05;9.43;;;;;;;-6.49;87.24;102473.09;5204980;28;20112;-73
2024/01/10 02:13:00;;;;;;;28.92;10.07;;;;;;;-6.58;88.08;102480.16;5202929;28;20029;-73
2024/01/10 02:15:30;;;;;;;23.52;8.95;;;;;;;-6.62;87.82;102476.53;5201443;28;20122;-73
2024/01/10 02:18:01;;;;;;;30.13;10.45;;;;;;;-6.77;88.30;102480.66;5202936;28;20037;-73
2024/01/10 02:20:31;;;;;;;27.15;9.18;;;;;;;-6.77;88.66;102492.50;5205861;28;20036;-73
2024/01/10 02:23:01;;;;;;;28.23;10.55;;;;;;;-6.89;87.76;102482.44;5203958;28;20710;-73
2024/01/10 02:25:32;;;;;;;27.20;9.85;;;;;;;-6.97;88.24;102481.03;5203309;28;20025;-72
2024/01/10 02:28:02;;;;;;;28.25;9.38;;;;;;;-7.05;89.53;102477.16;5206507;28;20041;-72
2024/01/10 02:30:33;;;;;;;25.13;9.90;;;;;;;-6.94;89.76;102471.06;5204668;28;20490;-73
2024/01/10 02:33:04;;;;;;;25.75;10.05;;;;;;;-6.86;89.66;102480.06;5211850;28;20060;-73
2024/01/10 02:35:34;;;;;;;31.70;9.90;;;;;;;-6.97;89.08;102465.81;5203537;28;20524;-73
2024/01/10 02:38:06;;;;;;;29.63;9.57;;;;;;;-7.01;89.36;102461.31;5206882;28;20037;-73
2024/01/10 02:40:36;;;;;;;28.73;9.73;;;;;;;-7.12;89.82;102462.28;5198654;28;20029;-73
2024/01/10 02:43:07;;;;;;;24.70;9.73;;;;;;;-6.92;89.27;102466.09;5205416;28;20465;-73
2024/01/10 02:45:38;;;;;;;30.10;9.40;;;;;;;-6.90;89.76;102462.84;5205311;28;20086;-72
2024/01/10 02:48:08;;;;;;;35.70;10.57;;;;;;;-7.12;89.00;102464.81;5207964;28;20037;-73
2024/01/10 02:50:38;;;;;;;30.77;10.65;;;;;;;-6.98;89.45;102458.97;5212302;28;20028;-73
2024/01/10 02:53:09;;;;;;;26.42;10.25;;;;;;;-7.04;89.74;102450.06;5208564;28;20403;-73
2024/01/10 02:55:40;;;;;;;29.10;10.55;;;;;;;-6.94;90.75;102450.75;5207102;28;20266;-73
2024/01/10 02:58:10;;;;;;;26.88;9.43;;;;;;;-7.07;89.80;102453.28;5207478;28;20478;-73
2024/01/10 03:00:40;;;;;;;26.95;9.80;;;;;;;-7.25;89.91;102451.22;5209153;28;20045;-72
2024/01/10 03:03:11;;;;;;;25.50;9.65;;;;;;;-7.12;89.84;102451.25;5210063;28;20125;-73
2024/01/10 03:05:41;;;;;;;29.60;10.00;;;;;;;-6.97;90.32;102458.19;5205287;28;20037;-72
2024/01/10 03:08:11;;;;;;;26.90;9.82;;;;;;;-6.74;88.50;102455.41;5213868;28;20111;-73
2024/01/10 03:10:41;;;;;;;31.70;11.85;;;;;;;-6.71;86.91;102453.09;5210337;28;20036;-72
2024/01/10 03:13:12;;;;;;;32.40;10.63;;;;;;;-6.64;87.12;102452.69;5209757;28;20036;-73
2024/01/10 03:15:42;;;;;;;31.95;10.38;;;;;;;-6.68;86.27;102458.38;5206881;28;20522;-73
2024/01/10 03:18:12;;;;;;;27.45;9.90;;;;;;;-6.61;87.94;102457.97;5206995;28;21632;-73
2024/01/10 03:20:43;;;;;;;27.65;9.50;;;;;;;-6.68;86.40;102454.94;5206402;28;20022;-73
2024/01/10 03:23:13;;;;;;;30.02;9.40;;;;;;;-6.88;85.71;102451.16;5207066;28;20032;-73
2024/01/10 03:25:43;;;;;;;28.50;10.00;;;;;;;-6.99;87.63;102457.22;5207937;28;20024;-73
2024/01/10 03:28:19;;;;;;;32.75;10.00;;;;;;;-7.21;87.03;102453.19;5211787;28;20035;-72
2024/01/10 03:30:50;;;;;;;23.70;9.02;;;;;;;-7.25;88.12;102445.25;5209959;28;20112;-73
2024/01/10 03:33:21;;;;;;;27.75;9.98;;;;;;;-6.95;88.03;102443.06;5208955;28;20025;-73
2024/01/10 03:35:51;;;;;;;28.40;10.23;;;;;;;-6.73;87.34;102441.94;5207248;28;20026;-73
2024/01/10 03:38:21;;;;;;;26.95;10.32;;;;;;;-6.80;87.77;102447.44;5206744;28;20027;-73
2024/01/10 03:40:52;;;;;;;28.52;10.73;;;;;;;-6.74;87.12;102437.63;5206325;28;20029;-73
2024/01/10 03:43:22;;;;;;;32.47;11.90;;;;;;;-6.77;87.82;102437.44;5212469;28;20139;-73
2024/01/10 03:45:52;;;;;;;29.77;11.50;;;;;;;-6.65;88.02;102439.88;5207789;28;20093;-73
2024/01/10 03:48:23;;;;;;;31.13;10.93;;;;;;;-6.55;87.86;102432.94;5208489;28;20475;-73
2024/01/10 03:50:54;;;;;;;34.53;11.57;;;;;;;-6.68;86.75;102444.78;5211002;28;20100;-73
2024/01/10 03:53:24;;;;;;;28.30;10.20;;;;;;;-6.54;87.73;102436.34;5208763;28;20385;-73
2024/01/10 03:55:54;;;;;;;31.60;11.02;;;;;;;-6.71;86.06;102437.84;5206003;28;20033;-72
2024/01/10 03:58:26;;;;;;;32.97;11.77;;;;;;;-6.74;86.46;102440.19;5207334;28;20179;-73
2024/01/10 04:00:56;;;;;;;34.78;11.55;;;;;;;-6.96;86.95;102437.06;5206401;28;20472;-72
2024/01/10 04:03:26;;;;;;;36.30;11.00;;;;;;;-6.88;88.05;102441.00;5206932;28;20128;-72
2024/01/10 04:05:56;;;;;;;33.72;11.85;;;;;;;-7.25;87.76;102432.56;5210038;28;20040;-72
2024/01/10 04:08:27;;;;;;;32.05;11.15;;;;;;;-7.16;88.80;102429.84;5207406;28;20037;-72
2024/01/10 04:10:57;;;;;;;36.50;11.65;;;;;;;-7.18;89.98;102439.03;5206633;28;20522;-73
2024/01/10 04:13:28;;;;;;;31.23;11.27;;;;;;;-7.28;89.74;102432.38;5210109;28;20481;-72
2024/01/10 04:15:58;;;;;;;33.17;11.15;;;;;;;-7.45;90.31;102430.41;5204889;28;20398;-73
2024/01/10 04:18:28;;;;;;;38.53;11.88;;;;;;;-7.45;90.30;102436.38;5210137;28;20112;-72
2024/01/10 04:20:59;;;;;;;30.73;11.10;;;;;;;-7.40;90.79;102429.94;5209554;28;20041;-73
2024/01/10 04:23:30;;;;;;;33.70;12.13;;;;;;;-7.13;90.96;102430.03;5209934;28;20087;-72
2024/01/10 04:26:02;;;;;;;34.97;12.27;;;;;;;-6.96;89.18;102432.00;5208778;28;20120;-73
2024/01/10 04:28:33;;;;;;;33.85;12.63;;;;;;;-7.06;88.58;102438.94;5209941;28;20036;-73
2024/01/10 04:31:03;;;;;;;32.28;12.43;;;;;;;-7.10;88.46;102430.22;5208120;28;20044;-73
2024/01/10 04:33:33;;;;;;;37.28;12.27;;;;;;;-7.21;88.74;102421.84;5204884;28;20120;-73
2024/01/10 04:36:04;;;;;;;31.17;11.73;;;;;;;-7.20;89.30;102423.59;5207452;28;20032;-73
2024/01/10 04:38:35;;;;;;;33.83;12.55;;;;;;;-7.22;89.52;102430.25;5210784;28;20036;-73
2024/01/10 04:41:05;;;;;;;34.97;12.52;;;;;;;-7.20;89.22;102433.75;5206202;28;20035;-73
2024/01/10 04:43:36;;;;;;;35.78;12.88;;;;;;;-7.12;89.72;102443.63;5208715;28;20063;-73
2024/01/10 04:46:06;;;;;;;32.47;12.48;;;;;;;-6.93;89.29;102431.31;5208450;28;20127;-73
2024/01/10 04:48:36;;;;;;;30.30;11.18;;;;;;;-7.24;87.78;102431.78;5207670;28;20171;-73
2024/01/10 04:51:07;;;;;;;37.15;12.50;;;;;;;-7.36;88.40;102425.94;5204757;28;20076;-72
2024/01/10 04:53:37;;;;;;;35.45;12.20;;;;;;;-7.43;88.62;102423.75;5210455;28;20025;-72
2024/01/10 04:56:07;;;;;;;42.30;12.13;;;;;;;-7.40;89.33;102421.41;5209552;28;20025;-73
2024/01/10 04:58:38;;;;;;;37.05;12.77;;;;;;;-7.18;88.94;102418.72;5209348;28;20116;-72
2024/01/10 05:01:08;;;;;;;35.80;12.50;;;;;;;-7.39;88.00;102415.59;5207405;28;20071;-72
2024/01/10 05:03:38;;;;;;;36.58;12.75;;;;;;;-7.51;87.95;102413.09;5209549;28;20029;-73
2024/01/10 05:06:09;;;;;;;33.92;11.63;;;;;;;-7.64;87.77;102419.81;5206379;28;20024;-73
2024/01/10 05:08:39;;;;;;;33.05;12.10;;;;;;;-7.72;89.70;102419.31;5207071;28;20029;-73
2024/01/10 05:11:09;;;;;;;34.90;13.13;;;;;;;-7.77;89.27;102424.84;5203619;28;20037;-73
2024/01/10 05:13:40;;;;;;;30.75;12.20;;;;;;;-7.84;90.25;102417.63;5202354;28;20037;-72
2024/01/10 05:16:10;;;;;;;35.38;12.27;;;;;;;-7.72;91.67;102421.84;5200430;28;20445;-73
2024/01/10 05:18:40;;;;;;;28.83;11.38;;;;;;;-7.68;92.26;102417.88;5213364;28;20025;-72
2024/01/10 05:21:11;;;;;;;33.40;12.45;;;;;;;-7.70;91.59;102407.59;5208434;28;20032;-72
2024/01/10 05:23:41;;;;;;;31.58;11.20;;;;;;;-7.71;91.50;102412.59;5209051;28;20080;-73
2024/01/10 05:26:11;;;;;;;30.98;11.85;;;;;;;-7.77;91.44;102408.00;5208827;28;20079;-73
2024/01/10 05:28:41;;;;;;;38.92;11.68;;;;;;;-7.89;90.66;102403.78;5206738;28;20017;-72
2024/01/10 05:31:12;;;;;;;36.42;11.73;;;;;;;-7.86;91.42;102407.38;5210574;28;20166;-73
2024/01/10 05:33:42;;;;;;;35.90;12.75;;;;;;;-7.80;91.66;102404.38;5203674;28;20570;-73
2024/01/10 05:36:12;;;;;;;34.50;12.43;;;;;;;-7.79;92.17;102407.03;5207817;28;20112;-73
2024/01/10 05:38:43;;;;;;;33.75;11.43;;;;;;;-7.71;91.42;102405.00;5207429;28;20438;-73
2024/01/10 05:41:14;;;;;;;46.00;12.80;;;;;;;-7.69;91.94;102413.59;5203716;28;20396;-73
2024/01/10 05:43:44;;;;;;;32.72;12.07;;;;;;;-7.66;91.50;102404.53;5199229;28;20095;-72
2024/01/10 05:46:16;;;;;;;35.72;12.90;;;;;;;-7.61;91.20;102407.34;5204810;28;20402;-72
2024/01/10 05:48:46;;;;;;;28.88;12.55;;;;;;;-7.48;91.12;102417.50;5207851;28;20569;-73
2024/01/10 05:51:17;;;;;;;35.60;12.50;;;;;;;-7.45;89.85;102405.91;5208839;28;20116;-72
2024/01/10 05:53:47;;;;;;;35.15;11.65;;;;;;;-7.61;90.52;102409.88;5200668;28;20072;-72
2024/01/10 05:56:17;;;;;;;31.38;12.02;;;;;;;-7.44;90.95;102409.31;5205300;28;20478;-73
2024/01/10 05:58:48;;;;;;;34.42;12.40;;;;;;;-7.65;89.21;102415.53;5202788;28;20036;-73
2024/01/10 06:01:20;;;;;;;33.83;11.75;;;;;;;-7.86;89.08;102419.19;5207296;28;20494;-73
2024/01/10 06:03:50;;;;;;;36.97;12.98;;;;;;;-7.76;90.22;102419.91;5207723;28;20037;-73
2024/01/10 06:06:20;;;;;;;37.33;13.55;;;;;;;-7.60;91.33;102420.13;5207555;28;20460;-73
2024/01/10 06:08:51;;;;;;;39.13;13.98;;;;;;;-7.83;89.46;102430.44;5210322;28;20021;-73
2024/01/10 06:11:21;;;;;;;36.08;13.45;;;;;;;-7.79;89.11;102421.34;5210605;28;20021;-72
2024/01/10 06:13:51;;;;;;;41.90;14.10;;;;;;;-7.79;89.49;102416.28;5201017;28;20025;-73
2024/01/10 06:16:21;;;;;;;37.30;12.95;;;;;;;-7.81;88.61;102421.25;5206970;28;20473;-72
2024/01/10 06:18:52;;;;;;;39.38;13.05;;;;;;;-7.60;89.27;102414.16;5209825;28;20124;-73
2024/01/10 06:21:22;;;;;;;35.55;13.55;;;;;;;-7.59;88.66;102415.91;5211605;28;20025;-73
2024/01/10 06:23:52;;;;;;;39.22;12.73;;;;;;;-7.97;87.47;102426.09;5213546;28;20171;-72
2024/01/10 06:26:23;;;;;;;39.25;12.98;;;;;;;-7.71;89.27;102431.22;5215618;28;20021;-73
2024/01/10 06:28:53;;;;;;;40.85;14.48;;;;;;;-7.55;88.87;102431.47;5207420;28;20287;-73
2024/01/10 06:31:23;;;;;;;37.83;13.10;;;;;;;-7.53;87.75;102426.50;5210922;28;20361;-73
2024/01/10 06:33:53;;;;;;;40.33;12.93;;;;;;;-7.58;87.51;102415.13;5208798;28;20153;-72
2024/01/10 06:36:24;;;;;;;41.55;14.75;;;;;;;-7.55;87.25;102417.91;5209783;28;20498;-73
2024/01/10 06:38:54;;;;;;;41.45;14.85;;;;;;;-7.45;87.76;102412.63;5203799;28;20211;-72
2024/01/10 06:41:24;;;;;;;41.30;14.45;;;;;;;-7.53;87.04;102406.19;5206554;28;20052;-72
2024/01/10 06:43:55;;;;;;;42.80;13.95;;;;;;;-7.73;87.81;102409.09;5207339;28;20120;-71
2024/01/10 06:46:25;;;;;;;41.80;13.65;;;;;;;-7.65;88.61;102415.53;5205808;28;20044;-72
2024/01/10 06:48:56;;;;;;;39.85;13.30;;;;;;;-7.75;87.94;102418.22;5205824;28;20107;-73
2024/01/10 06:51:29;;;;;;;41.80;13.88;;;;;;;-7.78;89.02;102418.94;5204544;28;20534;-72
2024/01/10 06:54:05;;;;;;;43.60;14.48;;;;;;;-7.82;88.21;102421.16;5204139;28;20068;-73
2024/01/10 06:56:35;;;;;;;41.75;13.98;;;;;;;-7.93;87.64;102427.16;5205132;28;20108;-73
2024/01/10 06:59:06;;;;;;;39.08;13.45;;;;;;;-8.15;87.28;102422.31;5205266;28;20036;-72
2024/01/10 07:01:36;;;;;;;49.35;15.07;;;;;;;-8.13;88.56;102417.31;5213170;28;20486;-72
2024/01/10 07:04:06;;;;;;;42.00;14.32;;;;;;;-8.03;89.31;102430.72;5206520;28;20032;-73
2024/01/10 07:06:37;;;;;;;40.72;13.50;;;;;;;-8.05;89.48;102423.81;5210634;28;20039;-72
2024/01/10 07:09:07;;;;;;;38.83;13.40;;;;;;;-8.06;89.27;102427.13;5208911;28;20540;-73
2024/01/10 07:11:37;;;;;;;44.17;14.05;;;;;;;-7.96;89.47;102426.94;5207841;28;20025;-73
2024/01/10 07:14:07;;;;;;;41.05;14.63;;;;;;;-8.00;88.37;102435.13;5203730;28;20033;-72
2024/01/10 07:16:42;;;;;;;38.10;14.77;;;;;;;-8.10;88.44;102428.56;5207253;28;20445;-72
2024/01/10 07:19:13;;;;;;;39.28;13.40;;;;;;;-8.14;89.47;102435.84;5210475;28;20479;-73
2024/01/10 07:21:43;;;;;;;41.50;14.23;;;;;;;-8.05;89.36;102442.44;5208265;28;20041;-73
2024/01/10 07:24:13;;;;;;;41.95;15.05;;;;;;;-7.86;89.32;102434.41;5206881;28;20029;-73
2024/01/10 07:26:44;;;;;;;41.88;14.65;;;;;;;-7.86;88.97;102442.03;5211129;28;20064;-72
2024/01/10 07:29:14;;;;;;;41.15;14.63;;;;;;;-8.04;88.36;102438.25;5209424;28;20454;-73
2024/01/10 07:31:44;;;;;;;41.05;14.40;;;;;;;-8.09;88.49;102443.00;5210673;28;20024;-73
2024/01/10 07:34:15;;;;;;;43.47;14.80;;;;;;;-8.10;89.46;102446.31;5207070;28;20055;-73
2024/01/10 07:36:45;;;;;;;44.50;14.82;;;;;;;-8.03;90.22;102445.94;5208423;28;20044;-72
2024/01/10 07:39:18;;;;;;;42.28;14.68;;;;;;;-7.84;89.29;102448.06;5205138;28;20125;-73
2024/01/10 07:41:49;;;;;;;40.35;15.15;;;;;;;-7.70;89.06;102443.13;5207494;28;20599;-72
2024/01/10 07:44:20;;;;;;;41.33;14.77;;;;;;;-7.73;87.20;102442.94;5206700;28;20112;-72
2024/01/10 07:46:54;;;;;;;46.28;14.88;;;;;;;-7.77;87.72;102432.47;5206568;28;20104;-73
2024/01/10 07:49:26;;;;;;;;;;;;;;;-7.84;88.18;102440.47;5209665;28;20029;-73
2024/01/10 07:51:56;;;;;;;43.58;14.52;;;;;;;-7.64;88.27;102437.59;5206182;28;19943;-73
2024/01/10 07:54:26;;;;;;;44.70;14.40;;;;;;;-7.64;88.35;102438.47;5205988;28;20092;-73
2024/01/10 07:56:57;;;;;;;46.88;14.88;;;;;;;-7.12;88.38;102439.41;5210625;28;20052;-73
2024/01/10 07:59:27;;;;;;;43.80;15.30;;;;;;;-6.69;87.20;102443.00;5208266;28;20363;-73
2024/01/10 08:02:00;;;;;;;44.80;16.10;;;;;;;-6.55;85.15;102432.94;5206798;28;20083;-71
2024/01/10 08:04:30;;;;;;;42.25;14.85;;;;;;;-5.80;85.66;102437.56;5202757;28;20046;-73
2024/01/10 08:07:01;;;;;;;40.85;15.45;;;;;;;-5.78;82.04;102435.13;5206340;28;20029;-73
2024/01/10 08:09:31;;;;;;;45.20;15.57;;;;;;;-4.86;81.74;102430.31;5208642;28;20029;-74
2024/01/10 08:12:03;;;;;;;45.40;16.55;;;;;;;-4.63;78.97;102434.13;5205296;28;20066;-73
2024/01/10 08:14:33;;;;;;;43.50;16.25;;;;;;;-4.19;76.21;102415.28;5210637;28;20033;-73
2024/01/10 08:17:04;;;;;;;46.50;15.57;;;;;;;-2.87;74.09;102416.91;5209603;28;20044;-74
2024/01/10 08:19:35;;;;;;;45.90;16.85;;;;;;;-3.39;72.41;102425.41;5212039;28;20108;-73
2024/01/10 08:22:07;;;;;;;43.63;15.98;;;;;;;-3.63;73.89;102418.22;5209817;28;20387;-73
2024/01/10 08:24:38;;;;;;;48.45;16.90;;;;;;;-3.12;72.66;102424.19;5210490;28;20397;-74
2024/01/10 08:27:08;;;;;;;48.05;17.83;;;;;;;-3.75;73.18;102426.09;5206404;28;20021;-73
2024/01/10 08:29:38;;;;;;;46.63;16.70;;;;;;;-2.85;72.51;102413.59;5211745;28;20047;-72
2024/01/10 08:32:09;;;;;;;47.95;16.85;;;;;;;-2.74;70.70;102415.00;5210324;28;20044;-73
2024/01/10 08:34:39;;;;;;;50.00;18.13;;;;;;;-3.10;70.66;102404.69;5208200;28;20029;-73
2024/01/10 08:37:09;;;;;;;47.30;17.83;;;;;;;-3.28;71.20;102406.34;5206127;28;20029;-73
2024/01/10 08:39:39;;;;;;;44.55;17.88;;;;;;;-3.55;72.77;102420.34;5210816;28;20033;-73
2024/01/10 08:42:10;;;;;;;43.97;16.98;;;;;;;-3.80;73.84;102412.22;5206001;28;20025;-74
2024/01/10 08:44:40;;;;;;;49.10;17.48;;;;;;;-3.28;73.14;102414.03;5208064;28;20056;-73
2024/01/10 08:47:10;;;;;;;46.60;16.50;;;;;;;-3.02;72.49;102411.94;5206176;28;20063;-74
2024/01/10 08:49:41;;;;;;;46.35;16.95;;;;;;;-4.04;73.91;102417.75;5211350;28;20048;-73
2024/01/10 08:52:11;;;;;;;47.67;17.92;;;;;;;-4.22;74.96;102419.34;5206275;28;20044;-73
2024/01/10 08:54:42;;;;;;;53.88;17.05;;;;;;;-4.96;77.13;102427.16;5213080;28;20025;-73
2024/01/10 08:57:12;;;;;;;45.55;16.85;;;;;;;-5.11;79.67;102427.19;5209650;28;20497;-73
2024/01/10 08:59:42;;;;;;;46.85;17.00;;;;;;;-5.43;80.69;102427.81;5207547;28;20021;-72
2024/01/10 09:02:13;;;;;;;45.00;17.80;;;;;;;-5.53;81.05;102422.97;5209169;28;20529;-73
2024/01/10 09:04:43;;;;;;;47.40;18.15;;;;;;;-5.56;81.44;102421.13;5203653;28;20033;-73
2024/01/10 09:07:13;;;;;;;51.65;18.35;;;;;;;-5.69;81.66;102425.41;5207272;28;20052;-73
2024/01/10 09:09:44;;;;;;;56.17;19.10;;;;;;;-5.62;82.21;102425.88;5212951;28;20079;-73
2024/01/10 09:12:14;;;;;;;52.33;18.88;;;;;;;-5.58;82.39;102425.25;5207546;28;20029;-73
2024/01/10 09:14:44;;;;;;;51.53;18.02;;;;;;;-5.62;83.43;102423.31;5208915;28;20409;-73
2024/01/10 09:17:15;;;;;;;49.60;18.92;;;;;;;-5.82;83.30;102428.06;5208625;28;20033;-73
2024/01/10 09:19:45;;;;;;;53.53;19.17;;;;;;;-5.77;85.12;102424.97;5213070;28;20322;-73
2024/01/10 09:22:15;;;;;;;57.63;19.60;;;;;;;-5.64;84.88;102414.72;5209505;28;20524;-73
2024/01/10 09:24:45;;;;;;;59.90;20.58;;;;;;;-5.74;85.48;102420.06;5209355;28;20044;-73
2024/01/10 09:27:16;;;;;;;50.40;19.02;;;;;;;-5.77;84.47;102421.56;5210136;28;20026;-73
2024/01/10 09:29:46;;;;;;;55.63;20.40;;;;;;;-5.50;84.71;102416.41;5208290;28;20029;-72
2024/01/10 09:32:16;;;;;;;55.38;19.42;;;;;;;-5.32;84.12;102415.75;5204385;28;20033;-73
2024/01/10 09:34:48;;;;;;;55.80;20.52;;;;;;;-5.65;84.60;102423.16;5206372;28;20065;-73
2024/01/10 09:37:18;;;;;;;52.33;19.83;;;;;;;-5.36;84.27;102418.09;5202496;28;20572;-73
2024/01/10 09:39:48;;;;;;;55.40;19.95;;;;;;;-5.38;83.05;102406.91;5209065;28;20026;-73
2024/01/10 09:42:23;;;;;;;55.05;19.90;;;;;;;-5.24;83.13;102418.75;5204569;28;20033;-73
2024/01/10 09:44:54;;;;;;;62.75;20.63;;;;;;;-5.52;83.10;102418.00;5197020;22;20046;-75
2024/01/10 09:47:25;;;;;;;56.97;20.52;;;;;;;-5.30;83.46;102413.31;5168527;28;20034;-75
2024/01/10 09:49:56;;;;;;;56.15;19.38;;;;;;;-5.15;83.52;102409.09;5171234;28;20131;-75
2024/01/10 09:52:27;;;;;;;52.90;19.92;;;;;;;-5.18;82.71;102401.28;5176604;28;20490;-75
2024/01/10 09:54:58;;;;;;;53.97;20.48;;;;;;;-4.85;81.97;102398.03;5167737;28;20411;-75
2024/01/10 09:57:30;;;;;;;58.00;20.40;;;;;;;-4.71;81.15;102395.44;5164484;28;20113;-75
2024/01/10 10:00:04;;;;;;;60.95;21.25;;;;;;;-4.91;81.59;102396.03;5167904;28;20038;-74
2024/01/10 10:02:34;;;;;;;60.00;21.30;;;;;;;-5.02;81.49;102403.88;5163385;28;20032;-76
2024/01/10 10:05:08;;;;;;;51.97;18.80;;;;;;;-4.53;81.53;102405.75;5163867;28;20030;-75
2024/01/10 10:07:50;;;;;;;55.53;19.73;;;;;;;-4.54;80.91;102404.00;5167820;28;20480;-76
2024/01/10 10:10:21;;;;;;;56.75;20.17;;;;;;;-4.72;80.65;102396.25;5162118;28;20553;-76
2024/01/10 10:12:55;;;;;;;53.90;20.67;;;;;;;-4.85;79.75;102391.28;5165601;28;20021;-76
2024/01/10 10:15:28;;;;;;;53.30;19.90;;;;;;;-4.46;80.27;102387.44;5163832;28;20038;-76
2024/01/10 10:17:58;;;;;;;62.72;21.23;;;;;;;-4.68;80.62;102390.50;5161620;28;20037;-76
2024/01/10 10:20:33;;;;;;;56.00;20.27;;;;;;;-4.89;80.67;102389.34;5166512;28;20033;-76
2024/01/10 10:23:10;;;;;;;65.57;20.27;;;;;;;-4.81;80.95;102389.78;5163911;28;20041;-76
2024/01/10 10:25:44;;;;;;;57.90;20.98;;;;;;;-4.75;81.50;102385.00;5161769;28;20034;-76
2024/01/10 10:28:15;;;;;;;60.25;20.50;;;;;;;-4.88;81.86;102380.03;5167157;28;20506;-76
2024/01/10 10:30:46;;;;;;;55.88;19.65;;;;;;;-4.67;82.26;102378.66;5166612;28;20022;-76
2024/01/10 10:33:17;;;;;;;56.95;20.45;;;;;;;-4.75;81.49;102380.78;5161738;28;20550;-76
2024/01/10 10:35:49;;;;;;;58.30;20.55;;;;;;;-4.55;80.66;102374.19;5161283;28;20030;-76
2024/01/10 10:38:22;;;;;;;57.10;20.45;;;;;;;-4.55;81.29;102364.88;5167837;28;20522;-76
2024/01/10 10:40:52;;;;;;;54.53;20.83;;;;;;;-4.35;81.61;102365.91;5162931;28;20531;-76
2024/01/10 10:43:22;;;;;;;54.08;20.23;;;;;;;-4.41;81.17;102371.59;5161179;28;20021;-76
2024/01/10 10:45:56;;;;;;;59.65;21.77;;;;;;;-4.46;80.79;102361.94;5167509;28;20034;-77
2024/01/10 10:48:31;;;;;;;56.65;20.48;;;;;;;-4.27;81.16;102360.41;5167261;28;20030;-76
2024/01/10 10:51:09;;;;;;;56.25;20.88;;;;;;;-4.36;79.98;102366.69;5160327;28;20127;-77
2024/01/10 10:53:43;;;;;;;61.17;22.23;;;;;;;-4.21;80.61;102364.94;5162673;28;20247;-77
2024/01/10 10:56:14;;;;;;;59.60;21.65;;;;;;;-4.22;80.74;102363.19;5169289;28;20035;-77
2024/01/10 10:58:45;;;;;;;60.67;20.77;;;;;;;-4.30;79.95;102364.50;5169949;28;20032;-77
2024/01/10 11:01:16;;;;;;;60.65;20.55;;;;;;;-4.10;80.43;102361.28;5169256;28;20030;-77
2024/01/10 11:03:48;;;;;;;60.60;21.77;;;;;;;-4.23;80.13;102366.56;5170448;28;20037;-77
2024/01/10 11:06:19;;;;;;;57.63;21.25;;;;;;;-3.98;81.38;102359.38;5166746;28;20033;-77
2024/01/10 11:09:03;;;;;;;59.80;20.02;;;;;;;-4.03;80.18;102356.59;5170290;28;20026;-77
2024/01/10 11:11:48;;;;;;;59.45;19.65;;;;;;;-3.76;79.57;102357.94;5170679;28;20502;-77
2024/01/10 11:14:21;;;;;;;62.13;20.75;;;;;;;-3.81;79.27;102353.44;5170818;28;20060;-76
2024/01/10 11:17:09;;;;;;;62.00;22.23;;;;;;;-3.88;79.27;102351.34;5173022;28;20245;-76
2024/01/10 11:19:58;;;;;;;53.97;20.58;;;;;;;-3.75;79.12;102349.50;5169415;28;20498;-77
2024/01/10 11:22:49;;;;;;;60.15;22.17;;;;;;;-3.83;78.97;102349.91;5172842;28;20029;-76
2024/01/10 11:25:20;;;;;;;60.25;21.02;;;;;;;-3.83;78.43;102335.47;5172922;28;20434;-77
2024/01/10 11:27:53;;;;;;;58.65;21.30;;;;;;;-3.85;79.31;102344.75;5169363;28;20030;-77
2024/01/10 11:30:34;;;;;;;64.53;21.55;;;;;;;-3.58;78.57;102344.41;5172012;28;20018;-77